createdAt,value
2022-08-23T00:01:40.389Z,18.00
2022-08-23T00:04:11.591Z,16.63
2022-08-23T00:06:39.022Z,19.65
2022-08-23T00:09:06.264Z,20.90
2022-08-23T00:11:36.974Z,18.30
2022-08-23T00:14:09.481Z,16.20
2022-08-23T00:16:36.346Z,16.75
2022-08-23T00:19:06.046Z,17.77
2022-08-23T00:21:32.416Z,17.13
2022-08-23T00:23:58.826Z,17.40
2022-08-23T00:26:25.624Z,18.65
2022-08-23T00:28:52.126Z,20.02
2022-08-23T00:31:19.817Z,15.65
2022-08-23T00:33:46.463Z,16.40
2022-08-23T00:36:12.968Z,16.05
2022-08-23T00:38:39.542Z,16.42
2022-08-23T00:41:06.215Z,15.90
2022-08-23T00:43:38.870Z,15.90
2022-08-23T00:46:45.042Z,15.55
2022-08-23T00:49:15.579Z,16.35
2022-08-23T00:51:53.860Z,16.30
2022-08-23T00:54:23.233Z,16.52
2022-08-23T00:56:51.385Z,17.65
2022-08-23T00:59:18.365Z,19.67
2022-08-23T01:01:44.955Z,20.33
2022-08-23T01:04:13.255Z,18.35
2022-08-23T01:06:48.046Z,18.85
2022-08-23T01:09:18.312Z,18.90
2022-08-23T01:12:07.135Z,21.45
2022-08-23T01:14:45.753Z,20.40
2022-08-23T01:17:22.692Z,20.17
2022-08-23T01:19:59.125Z,25.92
2022-08-23T01:22:32.782Z,21.35
2022-08-23T01:25:08.381Z,24.50
2022-08-23T01:27:36.716Z,20.90
2022-08-23T01:30:06.289Z,21.58
2022-08-23T01:32:37.505Z,18.77
2022-08-23T01:35:04.866Z,19.65
2022-08-23T01:37:31.365Z,19.63
2022-08-23T01:39:57.791Z,19.65
2022-08-23T01:42:24.217Z,20.38
2022-08-23T01:44:50.720Z,22.65
2022-08-23T01:47:17.388Z,22.70
2022-08-23T01:49:43.771Z,27.83
2022-08-23T01:52:10.140Z,21.88
2022-08-23T01:54:36.498Z,27.13
2022-08-23T01:57:05.130Z,20.90
2022-08-23T01:59:31.512Z,19.70
2022-08-23T02:01:58.106Z,19.83
2022-08-23T02:04:24.465Z,21.15
2022-08-23T02:06:50.831Z,23.13
2022-08-23T02:09:18.153Z,18.48
2022-08-23T02:11:46.304Z,19.45
2022-08-23T02:14:16.068Z,20.02
2022-08-23T02:17:02.683Z,19.90
2022-08-23T02:19:35.191Z,22.35
2022-08-23T02:22:02.762Z,20.98
2022-08-23T02:24:29.205Z,18.95
2022-08-23T02:26:59.297Z,16.70
2022-08-23T02:29:26.694Z,19.55
2022-08-23T02:31:54.153Z,24.77
2022-08-23T02:34:22.433Z,18.33
2022-08-23T02:36:51.109Z,16.77
2022-08-23T02:39:18.393Z,17.65
2022-08-23T02:41:44.813Z,17.08
2022-08-23T02:44:11.673Z,16.13
2022-08-23T02:46:40.197Z,15.73
2022-08-23T02:49:06.667Z,17.40
2022-08-23T02:51:33.955Z,18.40
2022-08-23T02:54:00.405Z,16.98
2022-08-23T02:56:27.009Z,17.77
2022-08-23T02:58:54.292Z,19.73
2022-08-23T03:01:27.612Z,17.70
2022-08-23T03:03:54.664Z,18.75
2022-08-23T03:06:24.729Z,17.65
2022-08-23T03:08:52.848Z,19.13
2022-08-23T03:11:21.208Z,17.73
2022-08-23T03:13:48.658Z,18.33
2022-08-23T03:16:16.236Z,14.75
2022-08-23T03:18:43.221Z,16.60
2022-08-23T03:21:10.384Z,18.88
2022-08-23T03:23:38.121Z,16.58
2022-08-23T03:26:06.200Z,18.63
2022-08-23T03:28:34.604Z,16.60
2022-08-23T03:31:01.319Z,16.58
2022-08-23T03:33:27.759Z,15.68
2022-08-23T03:35:58.728Z,14.85
2022-08-23T03:38:25.175Z,15.57
2022-08-23T03:40:51.534Z,19.48
2022-08-23T03:43:18.700Z,17.20
2022-08-23T03:45:45.080Z,16.90
2022-08-23T03:48:11.552Z,15.35
2022-08-23T03:50:38.385Z,15.82
2022-08-23T03:53:05.344Z,18.08
2022-08-23T03:55:31.934Z,20.85
2022-08-23T03:57:59.587Z,18.08
2022-08-23T04:00:26.072Z,16.77
2022-08-23T04:02:52.476Z,18.58
2022-08-23T04:05:18.985Z,23.80
2022-08-23T04:07:45.373Z,21.48
2022-08-23T04:10:12.063Z,21.77
2022-08-23T04:12:38.446Z,23.52
2022-08-23T04:15:05.187Z,20.02
2022-08-23T04:17:32.675Z,19.83
2022-08-23T04:19:59.247Z,16.50
2022-08-23T04:22:25.795Z,15.68
2022-08-23T04:24:52.174Z,15.50
2022-08-23T04:27:18.525Z,15.15
2022-08-23T04:29:45.172Z,18.15
2022-08-23T04:32:11.934Z,16.20
2022-08-23T04:34:38.789Z,16.30
2022-08-23T04:37:09.582Z,13.60
2022-08-23T04:39:37.613Z,18.65
2022-08-23T04:42:14.292Z,15.55
2022-08-23T04:44:41.226Z,17.45
2022-08-23T04:47:07.568Z,18.90
2022-08-23T04:49:33.938Z,15.15
2022-08-23T04:52:00.467Z,18.00
2022-08-23T04:54:26.952Z,19.40
2022-08-23T04:56:53.295Z,16.48
2022-08-23T04:59:19.905Z,17.23
2022-08-23T05:01:46.408Z,13.50
2022-08-23T05:04:12.893Z,17.38
2022-08-23T05:06:39.227Z,17.60
2022-08-23T05:09:05.893Z,17.15
2022-08-23T05:11:32.533Z,14.55
2022-08-23T05:13:59.231Z,17.15
2022-08-23T05:16:25.800Z,17.23
2022-08-23T05:18:52.273Z,17.55
2022-08-23T05:21:21.089Z,17.58
2022-08-23T05:23:50.738Z,17.60
2022-08-23T05:26:21.082Z,15.68
2022-08-23T05:28:49.178Z,16.85
2022-08-23T05:31:21.626Z,15.27
2022-08-23T05:33:48.693Z,17.45
2022-08-23T05:36:17.393Z,18.52
2022-08-23T05:38:44.584Z,20.38
2022-08-23T05:41:11.130Z,18.67
2022-08-23T05:43:37.960Z,17.98
2022-08-23T05:46:04.327Z,17.05
2022-08-23T05:48:31.928Z,16.98
2022-08-23T05:51:07.208Z,16.20
2022-08-23T05:53:33.569Z,18.77
2022-08-23T05:56:27.141Z,18.65
2022-08-23T05:58:59.806Z,18.27
2022-08-23T06:01:28.818Z,19.30
2022-08-23T06:03:55.759Z,20.13
2022-08-23T06:06:22.170Z,17.25
2022-08-23T06:08:48.843Z,18.10
2022-08-23T06:11:19.013Z,16.95
2022-08-23T06:13:51.767Z,24.75
2022-08-23T06:16:21.250Z,22.27
2022-08-23T06:18:47.905Z,20.77
2022-08-23T06:21:15.687Z,23.77
2022-08-23T06:23:42.813Z,23.92
2022-08-23T06:26:15.869Z,21.58
2022-08-23T06:28:50.873Z,23.45
2022-08-23T06:31:18.644Z,23.33
2022-08-23T06:33:45.123Z,22.50
2022-08-23T06:36:13.673Z,23.00
2022-08-23T06:38:41.082Z,22.83
2022-08-23T06:41:10.373Z,25.13
2022-08-23T06:43:38.448Z,22.00
2022-08-23T06:46:13.165Z,27.02
2022-08-23T06:48:40.349Z,25.23
2022-08-23T06:51:15.437Z,23.23
2022-08-23T06:53:42.081Z,24.58
2022-08-23T06:56:08.797Z,23.55
2022-08-23T06:58:35.166Z,26.48
2022-08-23T07:01:34.991Z,26.23
2022-08-23T07:04:02.021Z,26.88
2022-08-23T07:06:28.962Z,23.30
2022-08-23T07:08:56.023Z,23.92
2022-08-23T07:11:23.051Z,22.58
2022-08-23T07:13:49.421Z,22.45
2022-08-23T07:16:16.761Z,20.00
2022-08-23T07:18:43.969Z,19.83
2022-08-23T07:21:10.611Z,20.75
2022-08-23T07:23:36.981Z,22.90
2022-08-23T07:26:08.243Z,18.23
2022-08-23T07:28:34.637Z,21.52
2022-08-23T07:31:18.519Z,18.20
2022-08-23T07:33:45.879Z,18.27
2022-08-23T07:36:15.700Z,18.05
2022-08-23T07:38:43.732Z,19.75
2022-08-23T07:41:10.612Z,18.75
2022-08-23T07:43:37.762Z,18.77
2022-08-23T07:46:05.763Z,21.95
2022-08-23T07:48:53.096Z,18.95
2022-08-23T07:51:19.639Z,21.70
2022-08-23T07:53:47.436Z,17.38
2022-08-23T07:56:17.085Z,21.33
2022-08-23T07:58:43.750Z,19.55
2022-08-23T08:01:13.227Z,19.55
2022-08-23T08:03:40.028Z,19.95
2022-08-23T08:06:08.747Z,19.73
2022-08-23T08:08:35.149Z,20.33
2022-08-23T08:11:01.518Z,18.25
2022-08-23T08:13:27.871Z,20.60
2022-08-23T08:15:54.347Z,16.70
2022-08-23T08:18:20.779Z,16.85
2022-08-23T08:20:47.157Z,16.35
2022-08-23T08:23:13.502Z,17.17
2022-08-23T08:25:39.854Z,17.67
2022-08-23T08:28:06.215Z,18.05
2022-08-23T08:30:32.586Z,18.13
2022-08-23T08:32:59.134Z,16.02
2022-08-23T08:35:25.616Z,16.58
2022-08-23T08:37:52.207Z,17.40
2022-08-23T08:40:27.817Z,16.33
2022-08-23T08:43:18.194Z,20.20
2022-08-23T08:46:06.073Z,13.68
2022-08-23T08:48:42.986Z,13.65
2022-08-23T08:51:35.249Z,16.90
2022-08-23T08:54:05.329Z,15.38
2022-08-23T08:56:36.809Z,14.52
2022-08-23T08:59:29.361Z,16.17
2022-08-23T09:01:57.587Z,15.43
2022-08-23T09:04:25.417Z,14.15
2022-08-23T09:07:06.951Z,13.88
2022-08-23T09:09:46.786Z,15.65
2022-08-23T09:12:19.277Z,15.05
2022-08-23T09:15:20.871Z,16.05
2022-08-23T09:17:56.977Z,16.88
2022-08-23T09:20:28.885Z,13.18
2022-08-23T09:23:20.397Z,14.77
2022-08-23T09:25:53.485Z,14.05
2022-08-23T09:28:20.274Z,13.25
2022-08-23T09:30:58.770Z,15.88
2022-08-23T09:33:36.475Z,14.90
2022-08-23T09:36:24.542Z,16.20
2022-08-23T09:38:55.214Z,13.27
2022-08-23T09:41:27.794Z,15.05
2022-08-23T09:43:54.282Z,13.32
2022-08-23T09:46:30.239Z,13.25
2022-08-23T09:48:57.593Z,12.57
2022-08-23T09:51:32.443Z,11.82
2022-08-23T09:54:04.257Z,13.20
2022-08-23T09:56:34.026Z,11.73
2022-08-23T09:59:01.268Z,12.27
2022-08-23T10:01:34.378Z,11.20
2022-08-23T10:04:13.609Z,10.15
2022-08-23T10:06:42.817Z,9.63
2022-08-23T10:09:21.300Z,10.35
2022-08-23T10:11:47.688Z,10.98
2022-08-23T10:14:16.765Z,11.23
2022-08-23T10:16:59.177Z,9.32
2022-08-23T10:19:31.917Z,11.85
2022-08-23T10:22:18.477Z,9.85
2022-08-23T10:24:57.623Z,10.07
2022-08-23T10:27:46.684Z,9.70
2022-08-23T10:30:21.059Z,10.15
2022-08-23T10:32:52.880Z,11.43
2022-08-23T10:35:31.193Z,10.38
2022-08-23T10:38:24.311Z,10.48
2022-08-23T10:41:10.364Z,10.40
2022-08-23T10:44:02.017Z,9.52
2022-08-23T10:46:31.203Z,9.50
2022-08-23T10:48:59.844Z,9.02
2022-08-23T10:51:52.920Z,7.43
2022-08-23T10:54:32.153Z,11.60
2022-08-23T10:56:58.570Z,8.63
2022-08-23T10:59:26.157Z,7.00
2022-08-23T11:02:01.668Z,5.20
2022-08-23T11:05:01.712Z,9.73
2022-08-23T11:07:31.455Z,7.60
2022-08-23T11:10:25.862Z,12.18
2022-08-23T11:12:56.871Z,9.55
2022-08-23T11:15:45.052Z,9.13
2022-08-23T11:18:36.256Z,6.03
2022-08-23T11:21:02.619Z,9.93
2022-08-23T11:23:38.046Z,7.72
2022-08-23T11:26:07.969Z,8.05
2022-08-23T11:28:45.835Z,7.07
2022-08-23T11:31:12.153Z,8.93
2022-08-23T11:33:59.650Z,7.78
2022-08-23T11:36:27.807Z,9.18
2022-08-23T11:38:54.100Z,9.48
2022-08-23T11:41:23.258Z,10.93
2022-08-23T11:43:55.511Z,6.95
2022-08-23T11:46:27.486Z,7.85
2022-08-23T11:49:12.713Z,7.30
2022-08-23T11:52:06.766Z,7.65
2022-08-23T11:54:53.144Z,8.27
2022-08-23T11:57:19.444Z,5.82
2022-08-23T12:00:01.468Z,5.80
2022-08-23T12:02:39.769Z,6.45
2022-08-23T12:05:27.019Z,6.30
2022-08-23T12:08:13.524Z,6.72
2022-08-23T12:10:42.803Z,7.70
2022-08-23T12:13:18.013Z,7.82
2022-08-23T12:16:04.474Z,8.25
2022-08-23T12:18:37.731Z,7.72
2022-08-23T12:21:07.565Z,6.05
2022-08-23T12:23:48.009Z,7.15
2022-08-23T12:26:54.735Z,7.63
2022-08-23T12:30:00.119Z,11.75
2022-08-23T12:32:39.756Z,8.73
2022-08-23T12:35:30.085Z,7.68
2022-08-23T12:38:20.710Z,7.63
2022-08-23T12:40:51.661Z,9.18
2022-08-23T12:43:30.176Z,8.05
2022-08-23T12:46:00.791Z,6.18
2022-08-23T12:48:30.889Z,8.13
2022-08-23T12:50:59.793Z,9.65
2022-08-23T12:53:30.810Z,8.60
2022-08-23T12:56:20.121Z,6.93
2022-08-23T13:01:22.823Z,7.53
2022-08-23T13:03:56.658Z,7.88
2022-08-23T13:06:28.434Z,7.03
2022-08-23T13:09:01.494Z,8.00
2022-08-23T13:11:32.901Z,6.80
2022-08-23T13:16:28.158Z,8.52
2022-08-23T13:18:55.685Z,8.95
2022-08-23T13:21:39.397Z,10.18
2022-08-23T13:24:38.604Z,9.13
2022-08-23T13:27:22.544Z,8.07
2022-08-23T13:29:50.041Z,10.70
2022-08-23T13:32:33.963Z,9.85
2022-08-23T13:35:29.658Z,8.63
2022-08-23T13:38:00.576Z,9.10
2022-08-23T13:40:38.920Z,8.88
2022-08-23T13:43:10.161Z,10.20
2022-08-23T13:45:45.972Z,7.47
2022-08-23T13:48:28.853Z,9.82
2022-08-23T13:51:18.048Z,9.57
2022-08-23T13:53:44.552Z,9.32
2022-08-23T13:56:11.147Z,8.85
2022-08-23T13:58:37.502Z,7.68
2022-08-23T14:01:09.198Z,8.48
2022-08-23T14:03:36.290Z,11.18
2022-08-23T14:06:02.676Z,7.90
2022-08-23T14:08:29.034Z,8.77
2022-08-23T14:10:55.442Z,11.13
2022-08-23T14:13:27.467Z,9.88
2022-08-23T14:15:56.639Z,9.48
2022-08-23T14:18:25.105Z,12.00
2022-08-23T14:20:52.002Z,9.88
2022-08-23T14:23:18.404Z,6.63
2022-08-23T14:25:45.817Z,10.70
2022-08-23T14:28:12.270Z,8.02
2022-08-23T14:30:38.726Z,8.27
2022-08-23T14:33:06.384Z,9.82
2022-08-23T14:35:33.303Z,8.95
2022-08-23T14:38:13.397Z,9.27
2022-08-23T14:40:39.783Z,8.80
2022-08-23T14:43:06.259Z,7.32
2022-08-23T14:45:32.703Z,7.32
2022-08-23T14:47:59.068Z,8.93
2022-08-23T14:50:25.460Z,9.43
2022-08-23T14:52:54.721Z,7.22
2022-08-23T14:55:24.838Z,6.68
2022-08-23T14:57:51.576Z,7.25
2022-08-23T15:00:18.035Z,8.63
2022-08-23T15:02:46.760Z,7.78
2022-08-23T15:05:14.772Z,7.30
2022-08-23T15:07:41.277Z,8.60
2022-08-23T15:10:09.729Z,12.73
2022-08-23T15:15:23.383Z,7.97
2022-08-23T15:18:00.552Z,6.57
2022-08-23T15:20:34.766Z,8.98
2022-08-23T15:23:01.835Z,6.65
2022-08-23T15:25:30.437Z,6.88
2022-08-23T15:27:56.905Z,7.72
2022-08-23T15:30:24.268Z,8.45
2022-08-23T15:32:59.790Z,7.00
2022-08-23T15:35:27.434Z,4.97
2022-08-23T15:37:55.153Z,8.00
2022-08-23T15:40:22.949Z,6.88
2022-08-23T15:42:49.389Z,7.20
2022-08-23T15:45:15.781Z,5.45
2022-08-23T15:47:54.638Z,6.82
2022-08-23T15:50:25.606Z,4.20
2022-08-23T15:52:52.268Z,5.57
2022-08-23T15:55:19.738Z,6.85
2022-08-23T15:57:49.928Z,4.60
2022-08-23T16:00:18.937Z,6.50
2022-08-23T16:03:19.143Z,4.35
2022-08-23T16:05:31.880Z,4.53
2022-08-23T16:07:59.480Z,5.22
2022-08-23T16:10:27.545Z,5.00
2022-08-23T16:12:54.828Z,4.75
2022-08-23T16:15:21.206Z,5.00
2022-08-23T16:17:47.540Z,4.45
2022-08-23T16:20:14.153Z,5.40
2022-08-23T16:22:40.528Z,7.25
2022-08-23T16:25:07.346Z,7.20
2022-08-23T16:27:33.809Z,5.50
2022-08-23T16:30:00.175Z,6.40
2022-08-23T16:32:27.642Z,5.03
2022-08-23T16:34:54.027Z,5.78
2022-08-23T16:37:20.436Z,5.82
2022-08-23T16:39:46.812Z,7.82
2022-08-23T16:42:13.292Z,6.90
2022-08-23T16:44:39.668Z,7.32
2022-08-23T16:47:07.840Z,7.93
2022-08-23T16:49:34.204Z,5.65
2022-08-23T16:52:01.117Z,5.57
2022-08-23T16:54:27.791Z,10.25
2022-08-23T16:56:54.894Z,6.45
2022-08-23T16:59:21.530Z,7.40
2022-08-23T17:01:54.378Z,7.30
2022-08-23T17:04:22.526Z,6.28
2022-08-23T17:06:48.855Z,6.50
2022-08-23T17:09:15.204Z,5.80
2022-08-23T17:11:43.722Z,6.30
2022-08-23T17:14:10.237Z,5.72
2022-08-23T17:16:36.678Z,6.85
2022-08-23T17:19:03.794Z,6.03
2022-08-23T17:21:30.324Z,6.78
2022-08-23T17:23:56.876Z,9.52
2022-08-23T17:26:23.317Z,7.68
2022-08-23T17:28:49.681Z,7.82
2022-08-23T17:31:16.386Z,8.30
2022-08-23T17:33:42.979Z,5.53
2022-08-23T17:36:28.666Z,7.55
2022-08-23T17:38:55.055Z,10.52
2022-08-23T17:41:21.471Z,7.07
2022-08-23T17:43:47.833Z,6.68
2022-08-23T17:46:14.289Z,8.38
2022-08-23T17:48:40.764Z,7.70
2022-08-23T17:51:07.169Z,9.73
2022-08-23T17:53:33.530Z,7.85
2022-08-23T17:55:59.907Z,8.30
2022-08-23T17:58:26.273Z,8.45
2022-08-23T18:00:54.778Z,6.35
2022-08-23T18:03:21.212Z,10.30
2022-08-23T18:05:47.782Z,7.22
2022-08-23T18:08:14.403Z,8.75
2022-08-23T18:10:41.051Z,7.53
2022-08-23T18:13:07.697Z,11.35
2022-08-23T18:15:34.107Z,8.30
2022-08-23T18:18:01.168Z,9.18
2022-08-23T18:20:30.681Z,8.02
2022-08-23T18:22:58.690Z,8.45
2022-08-23T18:25:26.034Z,9.02
2022-08-23T18:27:52.462Z,8.30
2022-08-23T18:30:19.065Z,8.00
2022-08-23T18:32:45.445Z,9.48
2022-08-23T18:35:12.016Z,8.80
2022-08-23T18:37:38.549Z,8.68
2022-08-23T18:40:09.741Z,7.47
2022-08-23T18:45:04.845Z,11.70
2022-08-23T18:47:31.241Z,10.05
2022-08-23T18:49:57.790Z,11.18
2022-08-23T18:52:24.134Z,8.75
2022-08-23T18:54:50.505Z,8.20
2022-08-23T18:57:17.784Z,9.75
2022-08-23T18:59:44.161Z,8.98
2022-08-23T19:02:10.655Z,10.52
2022-08-23T19:04:37.256Z,9.98
2022-08-23T19:07:03.788Z,13.88
2022-08-23T19:09:30.194Z,10.07
2022-08-23T19:11:56.815Z,11.88
2022-08-23T19:14:23.195Z,9.55
2022-08-23T19:16:49.647Z,9.60
2022-08-23T19:19:17.074Z,10.57
2022-08-23T19:21:43.483Z,11.80
2022-08-23T19:24:10.397Z,10.35
2022-08-23T19:26:36.834Z,12.80
2022-08-23T19:29:07.828Z,10.55
2022-08-23T19:31:39.721Z,10.70
2022-08-23T19:34:08.760Z,11.43
2022-08-23T19:36:46.421Z,11.60
2022-08-23T19:39:15.617Z,12.52
2022-08-23T19:41:42.189Z,12.00
2022-08-23T19:44:09.051Z,13.35
2022-08-23T19:46:35.697Z,13.02
2022-08-23T19:49:02.092Z,13.25
2022-08-23T19:51:33.337Z,13.45
2022-08-23T19:53:59.701Z,11.52
2022-08-23T19:56:26.085Z,12.63
2022-08-23T19:58:53.557Z,11.60
2022-08-23T20:01:19.975Z,13.18
2022-08-23T20:03:46.382Z,13.90
2022-08-23T20:06:15.196Z,12.13
2022-08-23T20:08:45.312Z,11.02
2022-08-23T20:11:11.704Z,13.10
2022-08-23T20:13:38.089Z,12.85
2022-08-23T20:16:04.550Z,13.50
2022-08-23T20:18:30.960Z,12.30
2022-08-23T20:20:58.318Z,11.95
2022-08-23T20:23:25.015Z,14.35
2022-08-23T20:25:51.386Z,11.57
2022-08-23T20:28:17.745Z,13.77
2022-08-23T20:30:44.107Z,15.20
2022-08-23T20:33:10.457Z,13.30
2022-08-23T20:35:36.805Z,15.13
2022-08-23T20:38:03.477Z,13.25
2022-08-23T20:40:30.036Z,16.60
2022-08-23T20:42:56.613Z,14.48
2022-08-23T20:45:23.204Z,14.27
2022-08-23T20:47:49.544Z,14.95
2022-08-23T20:50:16.046Z,14.65
2022-08-23T20:52:42.433Z,13.98
2022-08-23T20:55:10.603Z,15.15
2022-08-23T20:57:38.217Z,12.23
2022-08-23T21:00:05.499Z,12.88
2022-08-23T21:02:32.063Z,12.48
2022-08-23T21:04:58.463Z,14.57
2022-08-23T21:07:24.942Z,11.02
2022-08-23T21:09:54.330Z,14.35
2022-08-23T21:12:20.696Z,12.90
2022-08-23T21:14:47.040Z,13.10
2022-08-23T21:17:13.401Z,13.73
2022-08-23T21:19:39.833Z,13.70
2022-08-23T21:22:06.230Z,14.25
2022-08-23T21:24:32.822Z,13.63
2022-08-23T21:26:59.274Z,12.90
2022-08-23T21:29:25.871Z,12.43
2022-08-23T21:31:52.252Z,14.20
2022-08-23T21:34:18.621Z,14.80
2022-08-23T21:36:45.000Z,13.98
2022-08-23T21:39:11.547Z,11.23
2022-08-23T21:41:41.946Z,12.10
2022-08-23T21:44:14.570Z,12.90
2022-08-23T21:46:41.788Z,13.45
2022-08-23T21:49:09.241Z,13.52
2022-08-23T21:51:38.724Z,13.23
2022-08-23T21:54:06.961Z,13.10
2022-08-23T21:56:33.332Z,12.82
2022-08-23T21:59:00.894Z,13.00
2022-08-23T22:01:27.767Z,12.30
2022-08-23T22:03:57.020Z,13.90
2022-08-23T22:06:23.996Z,14.80
2022-08-23T22:08:50.581Z,14.48
2022-08-23T22:11:16.943Z,13.52
2022-08-23T22:13:43.537Z,10.88
2022-08-23T22:16:10.717Z,10.93
2022-08-23T22:18:37.134Z,12.07
2022-08-23T22:21:05.862Z,12.02
2022-08-23T22:23:32.936Z,12.13
2022-08-23T22:26:02.086Z,13.35
2022-08-23T22:28:31.253Z,12.75
2022-08-23T22:31:01.846Z,11.75
2022-08-23T22:33:28.714Z,12.75
2022-08-23T22:36:01.144Z,12.60
2022-08-23T22:38:27.497Z,12.43
2022-08-23T22:40:53.847Z,15.35
2022-08-23T22:43:20.658Z,14.18
2022-08-23T22:45:57.086Z,12.63
2022-08-23T22:48:25.216Z,13.65
2022-08-23T22:51:02.510Z,13.52
2022-08-23T22:53:28.871Z,13.25
2022-08-23T22:55:55.274Z,12.18
2022-08-23T22:58:21.631Z,10.73
2022-08-23T23:00:47.972Z,11.25
2022-08-23T23:03:14.328Z,14.43
2022-08-23T23:05:41.027Z,14.27
2022-08-23T23:08:07.415Z,15.02
2022-08-23T23:10:33.777Z,12.77
2022-08-23T23:13:00.258Z,12.43
2022-08-23T23:15:26.734Z,11.45
2022-08-23T23:17:53.071Z,12.02
2022-08-23T23:20:19.539Z,12.40
2022-08-23T23:22:45.873Z,12.68
2022-08-23T23:25:12.272Z,12.95
2022-08-23T23:27:38.800Z,14.57
2022-08-23T23:30:05.673Z,16.27
2022-08-23T23:32:32.021Z,15.07
2022-08-23T23:34:58.664Z,12.30
2022-08-23T23:37:27.314Z,13.23
2022-08-23T23:39:53.694Z,11.95
2022-08-23T23:42:20.057Z,14.23
2022-08-23T23:44:46.425Z,14.60
2022-08-23T23:47:12.773Z,16.40
2022-08-23T23:49:39.888Z,15.23
2022-08-23T23:52:06.439Z,13.98
2022-08-23T23:54:34.513Z,12.88
2022-08-23T23:57:01.617Z,13.25
2022-08-23T23:59:28.162Z,11.95
